sensor_id;sensor_type;location;lat;lon;timestamp;pressure;altitude;pressure_sealevel;temperature;humidity
71424;BME280;59240;51.370;-0.486;2024-03-29T00:02:34;98288.38;;;9.67;100.00
71424;BME280;59240;51.370;-0.486;2024-03-29T00:07:30;98283.97;;;9.53;100.00
71424;BME280;59240;51.370;-0.486;2024-03-29T00:12:26;98232.84;;;9.23;100.00
71424;BME280;59240;51.370;-0.486;2024-03-29T00:17:21;98304.06;;;9.65;100.00
71424;BME280;59240;51.370;-0.486;2024-03-29T00:22:17;98297.75;;;9.55;100.00
71424;BME280;59240;51.370;-0.486;2024-03-29T00:27:13;98310.31;;;9.63;100.00
71424;BME280;59240;51.370;-0.486;2024-03-29T00:32:08;98313.75;;;9.63;100.00
71424;BME280;59240;51.370;-0.486;2024-03-29T00:37:04;98290.00;;;9.53;100.00
71424;BME280;59240;51.370;-0.486;2024-03-29T00:42:00;98303.34;;;9.63;100.00
71424;BME280;59240;51.370;-0.486;2024-03-29T00:46:56;98303.50;;;9.60;100.00
71424;BME280;59240;51.370;-0.486;2024-03-29T00:51:51;98309.13;;;9.68;100.00
71424;BME280;59240;51.370;-0.486;2024-03-29T00:56:47;98310.13;;;9.66;100.00
71424;BME280;59240;51.370;-0.486;2024-03-29T01:01:42;98322.50;;;9.76;100.00
71424;BME280;59240;51.370;-0.486;2024-03-29T01:06:39;98328.22;;;9.67;100.00
71424;BME280;59240;51.370;-0.486;2024-03-29T01:11:35;98323.81;;;9.53;100.00
71424;BME280;59240;51.370;-0.486;2024-03-29T01:16:31;98324.09;;;9.49;100.00
71424;BME280;59240;51.370;-0.486;2024-03-29T01:21:27;98311.69;;;9.54;100.00
71424;BME280;59240;51.370;-0.486;2024-03-29T01:26:22;98323.44;;;9.29;100.00
71424;BME280;59240;51.370;-0.486;2024-03-29T01:31:18;98328.81;;;9.26;100.00
71424;BME280;59240;51.370;-0.486;2024-03-29T01:36:14;98330.16;;;9.34;100.00
71424;BME280;59240;51.370;-0.486;2024-03-29T01:41:10;98327.66;;;9.16;100.00
71424;BME280;59240;51.370;-0.486;2024-03-29T01:46:05;98333.34;;;9.07;100.00
71424;BME280;59240;51.370;-0.486;2024-03-29T01:51:04;98342.97;;;9.05;100.00
71424;BME280;59240;51.370;-0.486;2024-03-29T01:56:00;98345.84;;;9.00;100.00
71424;BME280;59240;51.370;-0.486;2024-03-29T02:00:58;98309.47;;;8.85;100.00
71424;BME280;59240;51.370;-0.486;2024-03-29T02:05:55;98344.06;;;9.01;100.00
71424;BME280;59240;51.370;-0.486;2024-03-29T02:10:53;98332.84;;;9.16;100.00
71424;BME280;59240;51.370;-0.486;2024-03-29T02:15:49;98350.34;;;8.97;100.00
71424;BME280;59240;51.370;-0.486;2024-03-29T02:20:45;98351.19;;;8.97;100.00
71424;BME280;59240;51.370;-0.486;2024-03-29T02:25:41;98362.72;;;8.92;100.00
71424;BME280;59240;51.370;-0.486;2024-03-29T02:30:37;98351.75;;;9.18;100.00
71424;BME280;59240;51.370;-0.486;2024-03-29T02:35:32;98369.72;;;9.07;100.00
71424;BME280;59240;51.370;-0.486;2024-03-29T02:40:28;98357.16;;;8.99;100.00
71424;BME280;59240;51.370;-0.486;2024-03-29T02:45:23;98361.94;;;9.07;100.00
71424;BME280;59240;51.370;-0.486;2024-03-29T02:50:19;98331.00;;;9.02;100.00
71424;BME280;59240;51.370;-0.486;2024-03-29T02:55:15;98355.19;;;9.19;100.00
71424;BME280;59240;51.370;-0.486;2024-03-29T03:00:11;98374.41;;;9.16;100.00
71424;BME280;59240;51.370;-0.486;2024-03-29T03:05:07;98371.47;;;9.22;100.00
71424;BME280;59240;51.370;-0.486;2024-03-29T03:10:03;98368.69;;;9.25;100.00
71424;BME280;59240;51.370;-0.486;2024-03-29T03:15:17;98388.31;;;9.15;100.00
71424;BME280;59240;51.370;-0.486;2024-03-29T03:20:13;98404.56;;;9.35;100.00
71424;BME280;59240;51.370;-0.486;2024-03-29T03:25:11;98372.22;;;9.24;100.00
71424;BME280;59240;51.370;-0.486;2024-03-29T03:30:07;98400.81;;;9.40;100.00
71424;BME280;59240;51.370;-0.486;2024-03-29T03:35:03;98414.78;;;9.22;100.00
71424;BME280;59240;51.370;-0.486;2024-03-29T03:39:58;98373.72;;;8.97;100.00
71424;BME280;59240;51.370;-0.486;2024-03-29T03:44:54;98404.56;;;9.03;100.00
71424;BME280;59240;51.370;-0.486;2024-03-29T03:49:50;98432.88;;;9.08;100.00
71424;BME280;59240;51.370;-0.486;2024-03-29T03:54:45;98416.00;;;8.99;100.00
71424;BME280;59240;51.370;-0.486;2024-03-29T03:59:41;98420.31;;;9.00;100.00
71424;BME280;59240;51.370;-0.486;2024-03-29T04:04:37;98437.19;;;8.91;100.00
71424;BME280;59240;51.370;-0.486;2024-03-29T04:09:32;98426.28;;;8.85;100.00
71424;BME280;59240;51.370;-0.486;2024-03-29T04:14:28;98411.19;;;8.75;100.00
71424;BME280;59240;51.370;-0.486;2024-03-29T04:19:23;98426.94;;;8.72;100.00
71424;BME280;59240;51.370;-0.486;2024-03-29T04:24:19;98432.28;;;8.69;100.00
71424;BME280;59240;51.370;-0.486;2024-03-29T04:29:15;98419.47;;;8.66;100.00
71424;BME280;59240;51.370;-0.486;2024-03-29T04:34:10;98398.19;;;8.60;100.00
71424;BME280;59240;51.370;-0.486;2024-03-29T04:39:06;98404.09;;;8.46;100.00
71424;BME280;59240;51.370;-0.486;2024-03-29T04:44:02;98424.19;;;8.75;100.00
71424;BME280;59240;51.370;-0.486;2024-03-29T04:49:02;98428.38;;;8.45;100.00
71424;BME280;59240;51.370;-0.486;2024-03-29T04:53:58;98435.22;;;8.46;100.00
71424;BME280;59240;51.370;-0.486;2024-03-29T04:58:53;98421.66;;;8.41;100.00
71424;BME280;59240;51.370;-0.486;2024-03-29T05:03:49;98416.47;;;8.41;100.00
71424;BME280;59240;51.370;-0.486;2024-03-29T05:08:46;98443.78;;;8.48;100.00
71424;BME280;59240;51.370;-0.486;2024-03-29T05:13:42;98418.91;;;8.77;100.00
71424;BME280;59240;51.370;-0.486;2024-03-29T05:18:38;98452.13;;;9.03;100.00
71424;BME280;59240;51.370;-0.486;2024-03-29T05:23:34;98452.00;;;8.56;100.00
71424;BME280;59240;51.370;-0.486;2024-03-29T05:28:29;98453.84;;;8.54;100.00
71424;BME280;59240;51.370;-0.486;2024-03-29T05:33:25;98445.00;;;8.58;100.00
71424;BME280;59240;51.370;-0.486;2024-03-29T05:38:21;98429.88;;;8.49;100.00
71424;BME280;59240;51.370;-0.486;2024-03-29T05:43:16;98416.72;;;8.35;100.00
71424;BME280;59240;51.370;-0.486;2024-03-29T05:48:12;98459.03;;;8.54;100.00
71424;BME280;59240;51.370;-0.486;2024-03-29T05:53:07;98437.22;;;8.41;100.00
71424;BME280;59240;51.370;-0.486;2024-03-29T05:58:04;98460.69;;;8.55;100.00
71424;BME280;59240;51.370;-0.486;2024-03-29T06:03:01;98453.09;;;8.52;100.00
71424;BME280;59240;51.370;-0.486;2024-03-29T06:08:00;98457.50;;;8.50;100.00
71424;BME280;59240;51.370;-0.486;2024-03-29T06:12:56;98459.34;;;8.48;100.00
71424;BME280;59240;51.370;-0.486;2024-03-29T06:17:51;98463.91;;;8.60;100.00
71424;BME280;59240;51.370;-0.486;2024-03-29T06:22:47;98467.97;;;8.66;100.00
71424;BME280;59240;51.370;-0.486;2024-03-29T06:27:43;98463.69;;;8.65;100.00
71424;BME280;59240;51.370;-0.486;2024-03-29T06:32:45;98441.47;;;8.59;100.00
71424;BME280;59240;51.370;-0.486;2024-03-29T06:37:40;98469.72;;;8.65;100.00
71424;BME280;59240;51.370;-0.486;2024-03-29T06:42:38;98468.63;;;8.69;100.00
71424;BME280;59240;51.370;-0.486;2024-03-29T06:47:33;98459.34;;;8.65;100.00
71424;BME280;59240;51.370;-0.486;2024-03-29T06:52:29;98457.25;;;8.72;100.00
71424;BME280;59240;51.370;-0.486;2024-03-29T06:57:25;98447.22;;;8.82;100.00
71424;BME280;59240;51.370;-0.486;2024-03-29T07:02:24;98484.31;;;9.01;100.00
71424;BME280;59240;51.370;-0.486;2024-03-29T07:07:20;98477.13;;;9.06;100.00
71424;BME280;59240;51.370;-0.486;2024-03-29T07:12:16;98482.34;;;9.22;100.00
71424;BME280;59240;51.370;-0.486;2024-03-29T07:17:11;98487.63;;;9.36;100.00
71424;BME280;59240;51.370;-0.486;2024-03-29T07:22:07;98488.22;;;9.41;100.00
71424;BME280;59240;51.370;-0.486;2024-03-29T07:27:03;98498.97;;;9.51;100.00
71424;BME280;59240;51.370;-0.486;2024-03-29T07:31:58;98502.31;;;9.53;100.00
71424;BME280;59240;51.370;-0.486;2024-03-29T07:36:54;98500.47;;;9.55;100.00
71424;BME280;59240;51.370;-0.486;2024-03-29T07:41:50;98503.00;;;9.56;100.00
71424;BME280;59240;51.370;-0.486;2024-03-29T07:46:45;98505.91;;;9.66;100.00
71424;BME280;59240;51.370;-0.486;2024-03-29T07:51:42;98510.53;;;9.93;100.00
71424;BME280;59240;51.370;-0.486;2024-03-29T07:56:37;98503.41;;;9.80;100.00
71424;BME280;59240;51.370;-0.486;2024-03-29T08:01:33;98496.28;;;9.84;100.00
71424;BME280;59240;51.370;-0.486;2024-03-29T08:06:29;98481.00;;;9.78;100.00
71424;BME280;59240;51.370;-0.486;2024-03-29T08:11:24;98467.44;;;9.89;100.00
71424;BME280;59240;51.370;-0.486;2024-03-29T08:16:20;98508.34;;;10.17;100.00
71424;BME280;59240;51.370;-0.486;2024-03-29T08:21:15;98524.97;;;10.30;100.00
71424;BME280;59240;51.370;-0.486;2024-03-29T08:26:11;98530.97;;;10.46;100.00
71424;BME280;59240;51.370;-0.486;2024-03-29T08:31:07;98533.31;;;10.51;100.00
71424;BME280;59240;51.370;-0.486;2024-03-29T08:36:06;98533.84;;;10.56;100.00
71424;BME280;59240;51.370;-0.486;2024-03-29T08:41:03;98507.97;;;10.38;100.00
71424;BME280;59240;51.370;-0.486;2024-03-29T08:45:58;98535.19;;;10.63;100.00
71424;BME280;59240;51.370;-0.486;2024-03-29T08:50:55;98557.75;;;10.78;100.00
71424;BME280;59240;51.370;-0.486;2024-03-29T08:55:51;98556.38;;;10.87;100.00
71424;BME280;59240;51.370;-0.486;2024-03-29T09:00:53;98567.41;;;10.90;100.00
71424;BME280;59240;51.370;-0.486;2024-03-29T09:05:51;98575.81;;;10.95;100.00
71424;BME280;59240;51.370;-0.486;2024-03-29T09:10:47;98569.97;;;10.92;100.00
71424;BME280;59240;51.370;-0.486;2024-03-29T09:15:42;98580.38;;;10.92;100.00
71424;BME280;59240;51.370;-0.486;2024-03-29T09:20:38;98559.41;;;10.79;100.00
71424;BME280;59240;51.370;-0.486;2024-03-29T09:25:33;98557.19;;;10.87;100.00
71424;BME280;59240;51.370;-0.486;2024-03-29T09:30:29;98582.91;;;11.08;100.00
71424;BME280;59240;51.370;-0.486;2024-03-29T09:35:24;98585.31;;;11.11;100.00
71424;BME280;59240;51.370;-0.486;2024-03-29T09:40:20;98594.03;;;11.26;100.00
71424;BME280;59240;51.370;-0.486;2024-03-29T09:45:16;98598.69;;;11.35;100.00
71424;BME280;59240;51.370;-0.486;2024-03-29T09:50:13;98593.28;;;11.66;100.00
71424;BME280;59240;51.370;-0.486;2024-03-29T09:55:09;98607.28;;;12.21;100.00
71424;BME280;59240;51.370;-0.486;2024-03-29T10:00:06;98612.41;;;11.81;100.00
71424;BME280;59240;51.370;-0.486;2024-03-29T10:05:06;98606.88;;;12.00;100.00
71424;BME280;59240;51.370;-0.486;2024-03-29T10:10:04;98594.59;;;12.02;100.00
71424;BME280;59240;51.370;-0.486;2024-03-29T10:15:00;98601.34;;;12.46;100.00
71424;BME280;59240;51.370;-0.486;2024-03-29T10:20:09;98621.47;;;13.10;100.00
71424;BME280;59240;51.370;-0.486;2024-03-29T10:25:05;98622.56;;;13.72;100.00
71424;BME280;59240;51.370;-0.486;2024-03-29T10:30:02;98614.50;;;14.00;100.00
71424;BME280;59240;51.370;-0.486;2024-03-29T10:34:59;98610.41;;;13.96;100.00
71424;BME280;59240;51.370;-0.486;2024-03-29T10:39:58;98598.31;;;13.69;100.00
71424;BME280;59240;51.370;-0.486;2024-03-29T10:44:55;98628.88;;;13.82;100.00
71424;BME280;59240;51.370;-0.486;2024-03-29T10:49:51;98616.84;;;13.54;100.00
71424;BME280;59240;51.370;-0.486;2024-03-29T10:54:49;98628.25;;;13.40;100.00
71424;BME280;59240;51.370;-0.486;2024-03-29T11:04:55;98627.72;;;12.95;100.00
71424;BME280;59240;51.370;-0.486;2024-03-29T11:09:56;98625.63;;;13.40;100.00
71424;BME280;59240;51.370;-0.486;2024-03-29T11:15:02;98643.31;;;13.49;100.00
71424;BME280;59240;51.370;-0.486;2024-03-29T11:20:00;98644.88;;;13.39;100.00
71424;BME280;59240;51.370;-0.486;2024-03-29T11:25:00;98650.84;;;13.41;100.00
71424;BME280;59240;51.370;-0.486;2024-03-29T11:29:56;98642.06;;;13.67;100.00
71424;BME280;59240;51.370;-0.486;2024-03-29T11:34:53;98635.34;;;13.38;100.00
71424;BME280;59240;51.370;-0.486;2024-03-29T11:39:54;98652.94;;;13.49;100.00
71424;BME280;59240;51.370;-0.486;2024-03-29T11:44:49;98652.94;;;13.36;100.00
71424;BME280;59240;51.370;-0.486;2024-03-29T11:49:45;98636.03;;;13.14;100.00
71424;BME280;59240;51.370;-0.486;2024-03-29T11:54:41;98645.16;;;13.22;100.00
71424;BME280;59240;51.370;-0.486;2024-03-29T11:59:36;98655.44;;;13.37;100.00
71424;BME280;59240;51.370;-0.486;2024-03-29T12:04:32;98660.03;;;13.34;100.00
71424;BME280;59240;51.370;-0.486;2024-03-29T12:09:29;98672.09;;;13.49;100.00
71424;BME280;59240;51.370;-0.486;2024-03-29T12:14:25;98666.13;;;13.85;100.00
71424;BME280;59240;51.370;-0.486;2024-03-29T12:19:23;98636.47;;;14.47;100.00
71424;BME280;59240;51.370;-0.486;2024-03-29T12:24:19;98665.25;;;14.10;100.00
71424;BME280;59240;51.370;-0.486;2024-03-29T12:29:17;98672.16;;;14.11;100.00
71424;BME280;59240;51.370;-0.486;2024-03-29T12:34:21;98669.28;;;14.27;100.00
71424;BME280;59240;51.370;-0.486;2024-03-29T12:39:17;98689.13;;;13.93;100.00
71424;BME280;59240;51.370;-0.486;2024-03-29T12:44:13;98681.22;;;13.82;100.00
71424;BME280;59240;51.370;-0.486;2024-03-29T12:49:10;98686.72;;;14.28;100.00
71424;BME280;59240;51.370;-0.486;2024-03-29T12:54:07;98678.91;;;14.52;100.00
71424;BME280;59240;51.370;-0.486;2024-03-29T12:59:03;98679.19;;;14.60;100.00
71424;BME280;59240;51.370;-0.486;2024-03-29T13:03:59;98682.88;;;14.82;100.00
71424;BME280;59240;51.370;-0.486;2024-03-29T13:08:55;98694.13;;;14.95;98.08
71424;BME280;59240;51.370;-0.486;2024-03-29T13:13:52;98685.88;;;15.12;100.00
71424;BME280;59240;51.370;-0.486;2024-03-29T13:18:48;98694.31;;;15.40;100.00
71424;BME280;59240;51.370;-0.486;2024-03-29T13:23:43;98698.19;;;15.58;100.00
71424;BME280;59240;51.370;-0.486;2024-03-29T13:28:39;98705.78;;;15.50;100.00
71424;BME280;59240;51.370;-0.486;2024-03-29T13:33:34;98697.66;;;15.42;100.00
71424;BME280;59240;51.370;-0.486;2024-03-29T13:38:30;98692.91;;;14.88;97.83
71424;BME280;59240;51.370;-0.486;2024-03-29T13:43:25;98708.81;;;14.73;100.00
71424;BME280;59240;51.370;-0.486;2024-03-29T13:48:21;98733.31;;;14.85;100.00
71424;BME280;59240;51.370;-0.486;2024-03-29T13:53:17;98733.44;;;14.84;100.00
71424;BME280;59240;51.370;-0.486;2024-03-29T13:58:12;98745.53;;;14.97;100.00
71424;BME280;59240;51.370;-0.486;2024-03-29T14:03:08;98741.41;;;15.06;100.00
71424;BME280;59240;51.370;-0.486;2024-03-29T14:08:05;98739.16;;;14.89;99.22
71424;BME280;59240;51.370;-0.486;2024-03-29T14:13:00;98736.09;;;14.95;95.85
71424;BME280;59240;51.370;-0.486;2024-03-29T14:17:57;98734.84;;;15.36;93.74
71424;BME280;59240;51.370;-0.486;2024-03-29T14:22:54;98711.03;;;15.15;97.58
71424;BME280;59240;51.370;-0.486;2024-03-29T14:27:53;98735.16;;;15.55;97.56
71424;BME280;59240;51.370;-0.486;2024-03-29T14:32:53;98739.28;;;15.70;93.40
71424;BME280;59240;51.370;-0.486;2024-03-29T14:37:51;98751.88;;;16.00;90.66
71424;BME280;59240;51.370;-0.486;2024-03-29T14:42:46;98766.53;;;15.92;89.96
71424;BME280;59240;51.370;-0.486;2024-03-29T14:47:42;98767.00;;;15.85;90.11
71424;BME280;59240;51.370;-0.486;2024-03-29T14:52:38;98775.91;;;15.48;87.38
71424;BME280;59240;51.370;-0.486;2024-03-29T14:57:33;98738.72;;;15.54;92.10
71424;BME280;59240;51.370;-0.486;2024-03-29T15:02:29;98749.56;;;15.73;94.42
71424;BME280;59240;51.370;-0.486;2024-03-29T15:07:25;98786.25;;;16.08;92.50
71424;BME280;59240;51.370;-0.486;2024-03-29T15:12:20;98767.44;;;15.68;88.92
71424;BME280;59240;51.370;-0.486;2024-03-29T15:17:16;98777.56;;;16.30;90.25
71424;BME280;59240;51.370;-0.486;2024-03-29T15:22:12;98786.84;;;16.12;86.30
71424;BME280;59240;51.370;-0.486;2024-03-29T15:27:08;98787.81;;;16.11;90.71
71424;BME280;59240;51.370;-0.486;2024-03-29T15:32:11;98780.44;;;16.72;90.82
71424;BME280;59240;51.370;-0.486;2024-03-29T15:37:07;98794.56;;;16.71;87.95
71424;BME280;59240;51.370;-0.486;2024-03-29T15:42:03;98802.66;;;16.34;90.46
71424;BME280;59240;51.370;-0.486;2024-03-29T15:46:59;98805.22;;;16.12;88.13
71424;BME280;59240;51.370;-0.486;2024-03-29T15:51:55;98809.50;;;15.91;87.29
71424;BME280;59240;51.370;-0.486;2024-03-29T15:56:51;98801.44;;;15.46;83.03
71424;BME280;59240;51.370;-0.486;2024-03-29T16:01:46;98785.88;;;15.31;82.50
71424;BME280;59240;51.370;-0.486;2024-03-29T16:06:42;98804.09;;;15.81;82.67
71424;BME280;59240;51.370;-0.486;2024-03-29T16:11:38;98807.41;;;16.18;76.93
71424;BME280;59240;51.370;-0.486;2024-03-29T16:16:33;98805.66;;;15.83;80.20
71424;BME280;59240;51.370;-0.486;2024-03-29T16:21:29;98793.59;;;15.57;78.45
71424;BME280;59240;51.370;-0.486;2024-03-29T16:26:28;98804.09;;;15.57;76.26
71424;BME280;59240;51.370;-0.486;2024-03-29T16:31:23;98818.06;;;15.57;79.50
71424;BME280;59240;51.370;-0.486;2024-03-29T16:36:19;98814.31;;;15.49;81.56
71424;BME280;59240;51.370;-0.486;2024-03-29T16:41:15;98820.94;;;15.30;77.99
71424;BME280;59240;51.370;-0.486;2024-03-29T16:46:11;98812.91;;;15.08;78.97
71424;BME280;59240;51.370;-0.486;2024-03-29T16:51:06;98800.09;;;14.80;76.43
71424;BME280;59240;51.370;-0.486;2024-03-29T16:56:03;98812.91;;;14.71;79.21
71424;BME280;59240;51.370;-0.486;2024-03-29T17:00:59;98821.88;;;14.56;75.08
71424;BME280;59240;51.370;-0.486;2024-03-29T17:05:55;98843.34;;;14.48;77.98
71424;BME280;59240;51.370;-0.486;2024-03-29T17:10:50;98839.44;;;14.29;79.72
71424;BME280;59240;51.370;-0.486;2024-03-29T17:15:49;98857.66;;;14.17;82.98
71424;BME280;59240;51.370;-0.486;2024-03-29T17:20:44;98868.66;;;14.10;81.95
71424;BME280;59240;51.370;-0.486;2024-03-29T17:25:41;98859.41;;;14.04;79.78
71424;BME280;59240;51.370;-0.486;2024-03-29T17:30:36;98870.19;;;14.00;80.90
71424;BME280;59240;51.370;-0.486;2024-03-29T17:35:32;98858.38;;;13.94;79.91
71424;BME280;59240;51.370;-0.486;2024-03-29T17:40:28;98873.25;;;13.93;81.42
71424;BME280;59240;51.370;-0.486;2024-03-29T17:45:25;98885.34;;;13.82;78.63
71424;BME280;59240;51.370;-0.486;2024-03-29T17:50:20;98881.84;;;13.68;81.18
71424;BME280;59240;51.370;-0.486;2024-03-29T17:55:16;98865.75;;;13.48;80.42
71424;BME280;59240;51.370;-0.486;2024-03-29T18:00:12;98896.50;;;13.44;80.96
71424;BME280;59240;51.370;-0.486;2024-03-29T18:05:10;98911.84;;;13.36;80.86
71424;BME280;59240;51.370;-0.486;2024-03-29T18:10:06;98922.31;;;13.22;81.49
71424;BME280;59240;51.370;-0.486;2024-03-29T18:15:02;98906.75;;;12.92;81.96
71424;BME280;59240;51.370;-0.486;2024-03-29T18:19:57;98936.13;;;12.95;82.59
71424;BME280;59240;51.370;-0.486;2024-03-29T18:24:53;98954.06;;;12.87;82.24
71424;BME280;59240;51.370;-0.486;2024-03-29T18:29:49;98924.34;;;12.59;83.46
71424;BME280;59240;51.370;-0.486;2024-03-29T18:34:45;98949.19;;;12.67;83.14
71424;BME280;59240;51.370;-0.486;2024-03-29T18:39:41;98965.22;;;12.60;83.24
71424;BME280;59240;51.370;-0.486;2024-03-29T18:44:36;98939.63;;;12.37;82.61
71424;BME280;59240;51.370;-0.486;2024-03-29T18:49:32;98931.56;;;12.26;84.00
71424;BME280;59240;51.370;-0.486;2024-03-29T18:54:29;98973.00;;;12.32;85.46
71424;BME280;59240;51.370;-0.486;2024-03-29T18:59:25;98971.84;;;12.22;82.92
71424;BME280;59240;51.370;-0.486;2024-03-29T19:04:22;98971.63;;;12.11;83.72
71424;BME280;59240;51.370;-0.486;2024-03-29T19:09:18;98994.63;;;12.04;83.82
71424;BME280;59240;51.370;-0.486;2024-03-29T19:14:14;98994.31;;;11.94;84.38
71424;BME280;59240;51.370;-0.486;2024-03-29T19:19:10;99007.09;;;11.83;83.18
71424;BME280;59240;51.370;-0.486;2024-03-29T19:24:05;99011.97;;;11.73;84.18
71424;BME280;59240;51.370;-0.486;2024-03-29T19:29:01;99019.44;;;11.64;84.30
71424;BME280;59240;51.370;-0.486;2024-03-29T19:33:57;99023.78;;;11.47;84.96
71424;BME280;59240;51.370;-0.486;2024-03-29T19:38:53;99040.19;;;11.49;84.39
71424;BME280;59240;51.370;-0.486;2024-03-29T19:43:49;99057.09;;;11.42;84.62
71424;BME280;59240;51.370;-0.486;2024-03-29T19:48:45;99060.72;;;11.40;85.00
71424;BME280;59240;51.370;-0.486;2024-03-29T19:53:40;99060.34;;;11.30;84.84
71424;BME280;59240;51.370;-0.486;2024-03-29T19:58:37;99060.81;;;11.21;85.58
71424;BME280;59240;51.370;-0.486;2024-03-29T20:03:33;99064.66;;;11.14;85.36
71424;BME280;59240;51.370;-0.486;2024-03-29T20:08:28;99071.88;;;11.09;85.74
71424;BME280;59240;51.370;-0.486;2024-03-29T20:13:24;99079.69;;;11.26;84.18
71424;BME280;59240;51.370;-0.486;2024-03-29T20:18:19;99076.72;;;10.99;85.05
71424;BME280;59240;51.370;-0.486;2024-03-29T20:23:15;99084.94;;;10.91;85.73
71424;BME280;59240;51.370;-0.486;2024-03-29T20:28:12;99087.59;;;10.90;86.00
71424;BME280;59240;51.370;-0.486;2024-03-29T20:33:08;99099.03;;;10.87;85.86
71424;BME280;59240;51.370;-0.486;2024-03-29T20:38:04;99101.16;;;10.79;86.05
71424;BME280;59240;51.370;-0.486;2024-03-29T20:43:00;99123.81;;;10.77;85.95
71424;BME280;59240;51.370;-0.486;2024-03-29T20:47:57;99123.31;;;10.71;86.46
71424;BME280;59240;51.370;-0.486;2024-03-29T20:52:56;99128.66;;;10.67;86.56
71424;BME280;59240;51.370;-0.486;2024-03-29T20:57:53;99128.25;;;10.58;86.38
71424;BME280;59240;51.370;-0.486;2024-03-29T21:02:49;99128.56;;;10.52;86.50
71424;BME280;59240;51.370;-0.486;2024-03-29T21:08:04;99137.72;;;10.41;86.74
71424;BME280;59240;51.370;-0.486;2024-03-29T21:13:00;99144.13;;;10.34;87.48
71424;BME280;59240;51.370;-0.486;2024-03-29T21:18:01;99145.19;;;10.30;86.25
71424;BME280;59240;51.370;-0.486;2024-03-29T21:22:59;99158.56;;;10.23;86.50
71424;BME280;59240;51.370;-0.486;2024-03-29T21:27:55;99164.72;;;10.20;86.54
71424;BME280;59240;51.370;-0.486;2024-03-29T21:32:51;99162.66;;;10.08;86.70
71424;BME280;59240;51.370;-0.486;2024-03-29T21:37:46;99169.06;;;10.01;86.91
71424;BME280;59240;51.370;-0.486;2024-03-29T21:42:43;99186.22;;;10.05;86.87
71424;BME280;59240;51.370;-0.486;2024-03-29T21:47:38;99173.00;;;9.91;86.91
71424;BME280;59240;51.370;-0.486;2024-03-29T21:52:34;99148.81;;;9.70;86.99
71424;BME280;59240;51.370;-0.486;2024-03-29T21:57:30;99177.75;;;9.81;87.09
71424;BME280;59240;51.370;-0.486;2024-03-29T22:02:26;99176.50;;;9.71;87.19
71424;BME280;59240;51.370;-0.486;2024-03-29T22:07:22;99175.66;;;9.70;87.40
71424;BME280;59240;51.370;-0.486;2024-03-29T22:12:18;99177.78;;;9.60;87.35
71424;BME280;59240;51.370;-0.486;2024-03-29T22:17:13;99183.28;;;9.54;87.30
71424;BME280;59240;51.370;-0.486;2024-03-29T22:22:09;99176.69;;;9.46;87.48
71424;BME280;59240;51.370;-0.486;2024-03-29T22:27:04;99171.75;;;9.40;87.05
71424;BME280;59240;51.370;-0.486;2024-03-29T22:32:00;99179.03;;;9.31;87.16
71424;BME280;59240;51.370;-0.486;2024-03-29T22:36:56;99174.25;;;9.22;86.95
71424;BME280;59240;51.370;-0.486;2024-03-29T22:41:52;99134.22;;;8.86;87.57
71424;BME280;59240;51.370;-0.486;2024-03-29T22:46:47;99189.84;;;9.22;86.69
71424;BME280;59240;51.370;-0.486;2024-03-29T22:51:43;99191.25;;;9.09;87.51
71424;BME280;59240;51.370;-0.486;2024-03-29T22:56:40;99197.47;;;9.05;87.89
71424;BME280;59240;51.370;-0.486;2024-03-29T23:01:36;99205.41;;;9.02;87.97
71424;BME280;59240;51.370;-0.486;2024-03-29T23:06:32;99201.38;;;8.95;87.93
71424;BME280;59240;51.370;-0.486;2024-03-29T23:11:27;99205.78;;;8.93;87.93
71424;BME280;59240;51.370;-0.486;2024-03-29T23:16:23;99154.41;;;8.57;87.70
71424;BME280;59240;51.370;-0.486;2024-03-29T23:21:19;99209.94;;;8.75;87.61
71424;BME280;59240;51.370;-0.486;2024-03-29T23:26:14;99181.34;;;8.55;87.71
71424;BME280;59240;51.370;-0.486;2024-03-29T23:31:11;99207.75;;;8.64;87.87
71424;BME280;59240;51.370;-0.486;2024-03-29T23:36:07;99223.69;;;8.55;87.88
71424;BME280;59240;51.370;-0.486;2024-03-29T23:41:03;99224.16;;;8.43;87.90
71424;BME280;59240;51.370;-0.486;2024-03-29T23:46:03;99222.59;;;8.39;89.30
71424;BME280;59240;51.370;-0.486;2024-03-29T23:51:00;99229.69;;;8.34;87.96
71424;BME280;59240;51.370;-0.486;2024-03-29T23:55:58;99212.88;;;8.20;88.12
